sensor_id;sensor_type;location;lat;lon;timestamp;pressure;altitude;pressure_sealevel;temperature;humidity
21129;BME280;10722;51.910;8.352;2023-08-01T00:00:07;99272.69;;;15.58;100.00
21129;BME280;10722;51.910;8.352;2023-08-01T00:02:52;99267.84;;;15.44;100.00
21129;BME280;10722;51.910;8.352;2023-08-01T00:05:38;99268.75;;;15.43;100.00
21129;BME280;10722;51.910;8.352;2023-08-01T00:08:23;99260.19;;;15.38;100.00
21129;BME280;10722;51.910;8.352;2023-08-01T00:11:08;99264.38;;;15.44;100.00
21129;BME280;10722;51.910;8.352;2023-08-01T00:13:52;99261.19;;;15.33;100.00
21129;BME280;10722;51.910;8.352;2023-08-01T00:16:38;99258.53;;;15.34;100.00
21129;BME280;10722;51.910;8.352;2023-08-01T00:19:23;99255.06;;;15.34;100.00
21129;BME280;10722;51.910;8.352;2023-08-01T00:22:08;99235.16;;;15.31;100.00
21129;BME280;10722;51.910;8.352;2023-08-01T00:24:53;99245.56;;;15.31;100.00
21129;BME280;10722;51.910;8.352;2023-08-01T00:27:38;99236.75;;;15.37;100.00
21129;BME280;10722;51.910;8.352;2023-08-01T00:30:25;99231.59;;;15.35;100.00
21129;BME280;10722;51.910;8.352;2023-08-01T00:33:10;99230.06;;;15.27;100.00
21129;BME280;10722;51.910;8.352;2023-08-01T00:35:55;99234.50;;;15.23;100.00
21129;BME280;10722;51.910;8.352;2023-08-01T00:38:39;99237.97;;;15.23;100.00
21129;BME280;10722;51.910;8.352;2023-08-01T00:41:24;99227.56;;;15.22;100.00
21129;BME280;10722;51.910;8.352;2023-08-01T00:44:09;99217.31;;;15.16;100.00
21129;BME280;10722;51.910;8.352;2023-08-01T00:46:55;99204.97;;;15.22;100.00
21129;BME280;10722;51.910;8.352;2023-08-01T00:49:40;99206.31;;;15.39;100.00
21129;BME280;10722;51.910;8.352;2023-08-01T00:52:25;99219.16;;;15.45;100.00
21129;BME280;10722;51.910;8.352;2023-08-01T00:55:11;99218.66;;;15.32;100.00
21129;BME280;10722;51.910;8.352;2023-08-01T00:57:56;99224.81;;;15.28;100.00
21129;BME280;10722;51.910;8.352;2023-08-01T01:00:41;99223.84;;;15.32;100.00
21129;BME280;10722;51.910;8.352;2023-08-01T01:03:30;99213.38;;;15.34;100.00
21129;BME280;10722;51.910;8.352;2023-08-01T01:09:17;99205.19;;;15.15;100.00
21129;BME280;10722;51.910;8.352;2023-08-01T01:12:02;99207.66;;;15.21;100.00
21129;BME280;10722;51.910;8.352;2023-08-01T01:14:47;99205.03;;;15.21;100.00
21129;BME280;10722;51.910;8.352;2023-08-01T01:17:32;99205.72;;;15.28;100.00
21129;BME280;10722;51.910;8.352;2023-08-01T01:20:23;99192.88;;;15.20;100.00
21129;BME280;10722;51.910;8.352;2023-08-01T01:23:09;99186.81;;;15.19;100.00
21129;BME280;10722;51.910;8.352;2023-08-01T01:25:54;99189.41;;;15.21;100.00
21129;BME280;10722;51.910;8.352;2023-08-01T01:28:41;99178.16;;;15.19;100.00
21129;BME280;10722;51.910;8.352;2023-08-01T01:31:27;99164.09;;;15.26;100.00
21129;BME280;10722;51.910;8.352;2023-08-01T01:34:13;99162.25;;;15.30;100.00
21129;BME280;10722;51.910;8.352;2023-08-01T01:36:58;99164.22;;;15.21;100.00
21129;BME280;10722;51.910;8.352;2023-08-01T01:39:43;99155.47;;;15.22;100.00
21129;BME280;10722;51.910;8.352;2023-08-01T01:42:28;99145.69;;;15.32;100.00
21129;BME280;10722;51.910;8.352;2023-08-01T01:45:13;99147.94;;;15.44;100.00
21129;BME280;10722;51.910;8.352;2023-08-01T01:47:58;99142.50;;;15.21;100.00
21129;BME280;10722;51.910;8.352;2023-08-01T01:50:43;99137.06;;;15.30;100.00
21129;BME280;10722;51.910;8.352;2023-08-01T01:53:28;99146.78;;;15.23;100.00
21129;BME280;10722;51.910;8.352;2023-08-01T01:56:13;99138.91;;;15.25;100.00
21129;BME280;10722;51.910;8.352;2023-08-01T01:58:58;99131.81;;;15.32;100.00
21129;BME280;10722;51.910;8.352;2023-08-01T02:01:43;99131.19;;;15.22;100.00
21129;BME280;10722;51.910;8.352;2023-08-01T02:04:28;99138.81;;;15.30;100.00
21129;BME280;10722;51.910;8.352;2023-08-01T02:07:13;99139.78;;;15.25;100.00
21129;BME280;10722;51.910;8.352;2023-08-01T02:09:58;99126.59;;;15.32;100.00
21129;BME280;10722;51.910;8.352;2023-08-01T02:12:43;99106.53;;;15.34;100.00
21129;BME280;10722;51.910;8.352;2023-08-01T02:15:28;99105.59;;;15.36;100.00
21129;BME280;10722;51.910;8.352;2023-08-01T02:18:13;99103.09;;;15.33;100.00
21129;BME280;10722;51.910;8.352;2023-08-01T02:20:58;99108.31;;;15.33;100.00
21129;BME280;10722;51.910;8.352;2023-08-01T02:23:43;99102.34;;;15.30;100.00
21129;BME280;10722;51.910;8.352;2023-08-01T02:26:28;99094.53;;;15.28;100.00
21129;BME280;10722;51.910;8.352;2023-08-01T02:29:13;99084.28;;;15.23;100.00
21129;BME280;10722;51.910;8.352;2023-08-01T02:31:58;99070.41;;;15.21;100.00
21129;BME280;10722;51.910;8.352;2023-08-01T02:34:44;99065.94;;;15.27;100.00
21129;BME280;10722;51.910;8.352;2023-08-01T02:37:29;99054.59;;;15.29;100.00
21129;BME280;10722;51.910;8.352;2023-08-01T02:40:14;99065.03;;;15.28;100.00
21129;BME280;10722;51.910;8.352;2023-08-01T02:42:59;99072.72;;;15.32;100.00
21129;BME280;10722;51.910;8.352;2023-08-01T02:45:44;99073.66;;;15.30;100.00
21129;BME280;10722;51.910;8.352;2023-08-01T02:48:30;99070.06;;;15.34;100.00
21129;BME280;10722;51.910;8.352;2023-08-01T02:51:15;99074.00;;;15.17;100.00
21129;BME280;10722;51.910;8.352;2023-08-01T02:53:59;99080.09;;;15.16;100.00
21129;BME280;10722;51.910;8.352;2023-08-01T02:56:45;99085.19;;;15.21;100.00
21129;BME280;10722;51.910;8.352;2023-08-01T02:59:29;99083.63;;;15.15;100.00
21129;BME280;10722;51.910;8.352;2023-08-01T03:02:14;99088.00;;;15.13;100.00
21129;BME280;10722;51.910;8.352;2023-08-01T03:04:59;99079.38;;;15.11;100.00
21129;BME280;10722;51.910;8.352;2023-08-01T03:07:44;99078.53;;;15.11;100.00
21129;BME280;10722;51.910;8.352;2023-08-01T03:10:30;99092.41;;;15.11;100.00
21129;BME280;10722;51.910;8.352;2023-08-01T03:13:21;99085.41;;;15.13;100.00
21129;BME280;10722;51.910;8.352;2023-08-01T03:16:07;99089.75;;;15.13;100.00
21129;BME280;10722;51.910;8.352;2023-08-01T03:18:52;99085.31;;;15.16;100.00
21129;BME280;10722;51.910;8.352;2023-08-01T03:21:38;99086.31;;;15.12;100.00
21129;BME280;10722;51.910;8.352;2023-08-01T03:24:23;99090.69;;;15.10;100.00
21129;BME280;10722;51.910;8.352;2023-08-01T03:27:08;99091.66;;;15.06;100.00
21129;BME280;10722;51.910;8.352;2023-08-01T03:29:53;99091.56;;;15.11;100.00
21129;BME280;10722;51.910;8.352;2023-08-01T03:32:39;99101.13;;;15.10;100.00
21129;BME280;10722;51.910;8.352;2023-08-01T03:35:24;99101.13;;;15.10;100.00
21129;BME280;10722;51.910;8.352;2023-08-01T03:38:09;99097.84;;;15.02;100.00
21129;BME280;10722;51.910;8.352;2023-08-01T03:40:54;99104.66;;;15.08;100.00
21129;BME280;10722;51.910;8.352;2023-08-01T03:43:40;99093.50;;;15.02;100.00
21129;BME280;10722;51.910;8.352;2023-08-01T03:46:25;99092.69;;;15.00;100.00
21129;BME280;10722;51.910;8.352;2023-08-01T03:49:10;99096.88;;;15.06;100.00
21129;BME280;10722;51.910;8.352;2023-08-01T03:51:56;99101.19;;;15.07;100.00
21129;BME280;10722;51.910;8.352;2023-08-01T03:54:44;99109.94;;;15.05;100.00
21129;BME280;10722;51.910;8.352;2023-08-01T03:57:29;99109.94;;;15.05;100.00
21129;BME280;10722;51.910;8.352;2023-08-01T04:00:17;99097.84;;;15.04;100.00
21129;BME280;10722;51.910;8.352;2023-08-01T04:03:02;99098.59;;;15.07;100.00
21129;BME280;10722;51.910;8.352;2023-08-01T04:05:48;99102.97;;;15.05;100.00
21129;BME280;10722;51.910;8.352;2023-08-01T04:08:33;99103.03;;;15.04;100.00
21129;BME280;10722;51.910;8.352;2023-08-01T04:11:18;99102.06;;;15.06;100.00
21129;BME280;10722;51.910;8.352;2023-08-01T04:14:03;99103.88;;;15.04;100.00
21129;BME280;10722;51.910;8.352;2023-08-01T04:16:48;99100.28;;;15.08;100.00
21129;BME280;10722;51.910;8.352;2023-08-01T04:19:33;99097.69;;;15.08;100.00
21129;BME280;10722;51.910;8.352;2023-08-01T04:22:18;99100.28;;;15.08;100.00
21129;BME280;10722;51.910;8.352;2023-08-01T04:25:04;99104.63;;;15.09;100.00
21129;BME280;10722;51.910;8.352;2023-08-01T04:27:49;99110.63;;;15.11;100.00
21129;BME280;10722;51.910;8.352;2023-08-01T04:30:34;99116.69;;;15.12;100.00
21129;BME280;10722;51.910;8.352;2023-08-01T04:33:19;99114.16;;;15.10;100.00
21129;BME280;10722;51.910;8.352;2023-08-01T04:36:04;99119.44;;;15.07;100.00
21129;BME280;10722;51.910;8.352;2023-08-01T04:38:49;99128.13;;;15.06;100.00
21129;BME280;10722;51.910;8.352;2023-08-01T04:41:34;99131.59;;;15.07;100.00
21129;BME280;10722;51.910;8.352;2023-08-01T04:44:19;99134.03;;;15.13;100.00
21129;BME280;10722;51.910;8.352;2023-08-01T04:47:04;99138.31;;;15.15;100.00
21129;BME280;10722;51.910;8.352;2023-08-01T04:49:50;99135.56;;;15.20;100.00
21129;BME280;10722;51.910;8.352;2023-08-01T04:52:35;99136.66;;;15.13;100.00
21129;BME280;10722;51.910;8.352;2023-08-01T04:55:21;99131.00;;;15.30;100.00
21129;BME280;10722;51.910;8.352;2023-08-01T04:58:06;99131.88;;;15.29;100.00
21129;BME280;10722;51.910;8.352;2023-08-01T05:00:55;99139.28;;;15.44;100.00
21129;BME280;10722;51.910;8.352;2023-08-01T05:03:40;99133.59;;;15.30;100.00
21129;BME280;10722;51.910;8.352;2023-08-01T05:06:26;99128.63;;;15.20;100.00
21129;BME280;10722;51.910;8.352;2023-08-01T05:09:11;99136.03;;;15.36;100.00
21129;BME280;10722;51.910;8.352;2023-08-01T05:11:56;99132.78;;;15.28;100.00
21129;BME280;10722;51.910;8.352;2023-08-01T05:14:42;99128.59;;;15.22;100.00
21129;BME280;10722;51.910;8.352;2023-08-01T05:17:27;99144.59;;;15.41;100.00
21129;BME280;10722;51.910;8.352;2023-08-01T05:20:12;99137.03;;;15.32;100.00
21129;BME280;10722;51.910;8.352;2023-08-01T05:22:58;99142.47;;;15.22;100.00
21129;BME280;10722;51.910;8.352;2023-08-01T05:25:43;99144.22;;;15.22;100.00
21129;BME280;10722;51.910;8.352;2023-08-01T05:28:29;99147.25;;;15.05;100.00
21129;BME280;10722;51.910;8.352;2023-08-01T05:31:15;99139.41;;;15.07;100.00
21129;BME280;10722;51.910;8.352;2023-08-01T05:34:01;99150.53;;;15.12;100.00
21129;BME280;10722;51.910;8.352;2023-08-01T05:36:46;99140.88;;;15.17;100.00
21129;BME280;10722;51.910;8.352;2023-08-01T05:39:31;99146.78;;;15.23;100.00
21129;BME280;10722;51.910;8.352;2023-08-01T05:42:16;99142.25;;;15.30;100.00
21129;BME280;10722;51.910;8.352;2023-08-01T05:45:02;99151.38;;;15.14;100.00
21129;BME280;10722;51.910;8.352;2023-08-01T05:47:47;99134.81;;;15.16;100.00
21129;BME280;10722;51.910;8.352;2023-08-01T05:50:33;99146.41;;;15.05;100.00
21129;BME280;10722;51.910;8.352;2023-08-01T05:53:18;99142.78;;;15.10;100.00
21129;BME280;10722;51.910;8.352;2023-08-01T05:56:03;99143.53;;;15.15;100.00
21129;BME280;10722;51.910;8.352;2023-08-01T05:58:48;99141.13;;;15.08;100.00
21129;BME280;10722;51.910;8.352;2023-08-01T06:01:34;99144.97;;;15.25;100.00
21129;BME280;10722;51.910;8.352;2023-08-01T06:04:19;99149.53;;;15.17;100.00
21129;BME280;10722;51.910;8.352;2023-08-01T06:07:05;99152.28;;;15.13;100.00
21129;BME280;10722;51.910;8.352;2023-08-01T06:09:50;99159.69;;;15.28;100.00
21129;BME280;10722;51.910;8.352;2023-08-01T06:12:36;99157.97;;;15.27;100.00
21129;BME280;10722;51.910;8.352;2023-08-01T06:15:21;99157.63;;;15.41;100.00
21129;BME280;10722;51.910;8.352;2023-08-01T06:18:06;99159.59;;;15.31;100.00
21129;BME280;10722;51.910;8.352;2023-08-01T06:20:51;99156.78;;;15.39;100.00
21129;BME280;10722;51.910;8.352;2023-08-01T06:23:36;99153.53;;;15.31;100.00
21129;BME280;10722;51.910;8.352;2023-08-01T06:26:21;99158.72;;;15.32;100.00
21129;BME280;10722;51.910;8.352;2023-08-01T06:29:06;99154.84;;;15.45;100.00
21129;BME280;10722;51.910;8.352;2023-08-01T06:31:52;99150.22;;;15.57;100.00
21129;BME280;10722;51.910;8.352;2023-08-01T06:34:37;99150.16;;;15.60;100.00
21129;BME280;10722;51.910;8.352;2023-08-01T06:37:22;99150.19;;;15.58;100.00
21129;BME280;10722;51.910;8.352;2023-08-01T06:40:07;99150.16;;;15.60;100.00
21129;BME280;10722;51.910;8.352;2023-08-01T06:42:53;99146.16;;;15.46;100.00
21129;BME280;10722;51.910;8.352;2023-08-01T06:45:38;99151.22;;;15.51;100.00
21129;BME280;10722;51.910;8.352;2023-08-01T06:48:23;99153.72;;;15.56;100.00
21129;BME280;10722;51.910;8.352;2023-08-01T06:51:09;99150.91;;;15.63;100.00
21129;BME280;10722;51.910;8.352;2023-08-01T06:53:54;99154.34;;;15.65;100.00
21129;BME280;10722;51.910;8.352;2023-08-01T06:56:39;99151.66;;;15.67;100.00
21129;BME280;10722;51.910;8.352;2023-08-01T06:59:24;99154.47;;;15.59;100.00
21129;BME280;10722;51.910;8.352;2023-08-01T07:02:10;99143.28;;;15.56;100.00
21129;BME280;10722;51.910;8.352;2023-08-01T07:04:55;99145.25;;;15.47;100.00
21129;BME280;10722;51.910;8.352;2023-08-01T07:07:41;99151.38;;;15.46;100.00
21129;BME280;10722;51.910;8.352;2023-08-01T07:10:26;99149.72;;;15.44;100.00
21129;BME280;10722;51.910;8.352;2023-08-01T07:13:11;99154.06;;;15.43;100.00
21129;BME280;10722;51.910;8.352;2023-08-01T07:15:57;99157.63;;;15.41;100.00
21129;BME280;10722;51.910;8.352;2023-08-01T07:18:42;99157.16;;;15.58;100.00
21129;BME280;10722;51.910;8.352;2023-08-01T07:21:28;99168.16;;;15.36;100.00
21129;BME280;10722;51.910;8.352;2023-08-01T07:24:13;99164.66;;;15.37;100.00
21129;BME280;10722;51.910;8.352;2023-08-01T07:26:58;99166.44;;;15.35;100.00
21129;BME280;10722;51.910;8.352;2023-08-01T07:29:43;99167.97;;;15.42;100.00
21129;BME280;10722;51.910;8.352;2023-08-01T07:32:28;99164.00;;;15.29;100.00
21129;BME280;10722;51.910;8.352;2023-08-01T07:35:13;99167.13;;;15.42;100.00
21129;BME280;10722;51.910;8.352;2023-08-01T07:37:58;99169.72;;;15.42;100.00
21129;BME280;10722;51.910;8.352;2023-08-01T07:40:44;99172.72;;;15.59;100.00
21129;BME280;10722;51.910;8.352;2023-08-01T07:43:29;99165.84;;;15.88;100.00
21129;BME280;10722;51.910;8.352;2023-08-01T07:46:14;99164.28;;;15.82;100.00
21129;BME280;10722;51.910;8.352;2023-08-01T07:49:00;99165.81;;;15.91;100.00
21129;BME280;10722;51.910;8.352;2023-08-01T07:51:45;99164.03;;;15.91;100.00
21129;BME280;10722;51.910;8.352;2023-08-01T07:54:30;99168.41;;;15.91;100.00
21129;BME280;10722;51.910;8.352;2023-08-01T07:57:15;99174.78;;;15.81;100.00
21129;BME280;10722;51.910;8.352;2023-08-01T08:00:00;99177.47;;;15.78;100.00
21129;BME280;10722;51.910;8.352;2023-08-01T08:02:46;99166.66;;;15.91;100.00
21129;BME280;10722;51.910;8.352;2023-08-01T08:05:31;99170.56;;;16.06;100.00
21129;BME280;10722;51.910;8.352;2023-08-01T08:08:17;99176.97;;;16.24;100.00
21129;BME280;10722;51.910;8.352;2023-08-01T08:11:02;99178.13;;;16.44;100.00
21129;BME280;10722;51.910;8.352;2023-08-01T08:13:48;99164.69;;;16.56;100.00
21129;BME280;10722;51.910;8.352;2023-08-01T08:16:33;99173.03;;;16.67;100.00
21129;BME280;10722;51.910;8.352;2023-08-01T08:19:18;99173.47;;;16.53;100.00
21129;BME280;10722;51.910;8.352;2023-08-01T08:22:04;99160.00;;;16.39;100.00
21129;BME280;10722;51.910;8.352;2023-08-01T08:24:49;99154.38;;;16.51;100.00
21129;BME280;10722;51.910;8.352;2023-08-01T08:27:35;99152.69;;;16.50;100.00
21129;BME280;10722;51.910;8.352;2023-08-01T08:30:20;99152.19;;;16.39;100.00
21129;BME280;10722;51.910;8.352;2023-08-01T08:33:05;99145.13;;;16.41;100.00
21129;BME280;10722;51.910;8.352;2023-08-01T08:35:51;99150.25;;;16.44;100.00
21129;BME280;10722;51.910;8.352;2023-08-01T08:38:36;99146.53;;;16.53;100.00
21129;BME280;10722;51.910;8.352;2023-08-01T08:41:22;99128.44;;;16.73;100.00
21129;BME280;10722;51.910;8.352;2023-08-01T08:44:10;99133.72;;;16.45;100.00
21129;BME280;10722;51.910;8.352;2023-08-01T08:47:02;99128.91;;;16.31;100.00
21129;BME280;10722;51.910;8.352;2023-08-01T08:49:47;99114.31;;;16.26;100.00
21129;BME280;10722;51.910;8.352;2023-08-01T08:52:33;99122.59;;;16.10;100.00
21129;BME280;10722;51.910;8.352;2023-08-01T08:55:19;99124.44;;;16.35;100.00
21129;BME280;10722;51.910;8.352;2023-08-01T08:58:05;99133.38;;;16.28;100.00
21129;BME280;10722;51.910;8.352;2023-08-01T09:00:51;99132.88;;;16.17;100.00
21129;BME280;10722;51.910;8.352;2023-08-01T09:03:36;99135.94;;;16.29;100.00
21129;BME280;10722;51.910;8.352;2023-08-01T09:06:30;99138.63;;;16.54;100.00
21129;BME280;10722;51.910;8.352;2023-08-01T09:09:16;99131.38;;;16.64;100.00
21129;BME280;10722;51.910;8.352;2023-08-01T09:12:01;99129.47;;;17.21;100.00
21129;BME280;10722;51.910;8.352;2023-08-01T09:14:48;99125.31;;;17.40;100.00
21129;BME280;10722;51.910;8.352;2023-08-01T09:17:35;99108.63;;;17.19;100.00
21129;BME280;10722;51.910;8.352;2023-08-01T09:20:21;99107.13;;;16.87;100.00
21129;BME280;10722;51.910;8.352;2023-08-01T09:23:08;99098.97;;;16.70;100.00
21129;BME280;10722;51.910;8.352;2023-08-01T09:25:53;99116.97;;;16.79;100.00
21129;BME280;10722;51.910;8.352;2023-08-01T09:28:41;99120.66;;;16.72;100.00
21129;BME280;10722;51.910;8.352;2023-08-01T09:31:28;99114.44;;;16.76;100.00
21129;BME280;10722;51.910;8.352;2023-08-01T09:34:26;99124.66;;;17.34;100.00
21129;BME280;10722;51.910;8.352;2023-08-01T09:37:11;99127.25;;;17.59;100.00
21129;BME280;10722;51.910;8.352;2023-08-01T09:39:57;99114.31;;;17.79;100.00
21129;BME280;10722;51.910;8.352;2023-08-01T09:42:44;99103.09;;;17.99;100.00
21129;BME280;10722;51.910;8.352;2023-08-01T09:45:29;99083.38;;;18.12;100.00
21129;BME280;10722;51.910;8.352;2023-08-01T09:48:28;99066.22;;;18.27;100.00
21129;BME280;10722;51.910;8.352;2023-08-01T09:51:15;99048.47;;;18.13;100.00
21129;BME280;10722;51.910;8.352;2023-08-01T09:54:01;99038.66;;;17.73;100.00
21129;BME280;10722;51.910;8.352;2023-08-01T09:56:48;99046.94;;;17.86;100.00
21129;BME280;10722;51.910;8.352;2023-08-01T09:59:34;99050.09;;;18.16;100.00
21129;BME280;10722;51.910;8.352;2023-08-01T10:02:23;99045.44;;;18.45;100.00
21129;BME280;10722;51.910;8.352;2023-08-01T10:05:10;99032.94;;;18.51;100.00
21129;BME280;10722;51.910;8.352;2023-08-01T10:08:01;99009.31;;;18.73;100.00
21129;BME280;10722;51.910;8.352;2023-08-01T10:10:47;98997.97;;;18.52;99.36
21129;BME280;10722;51.910;8.352;2023-08-01T10:13:33;99000.53;;;18.95;98.62
21129;BME280;10722;51.910;8.352;2023-08-01T10:16:18;98995.97;;;19.19;97.22
21129;BME280;10722;51.910;8.352;2023-08-01T10:19:06;98984.78;;;19.34;95.29
21129;BME280;10722;51.910;8.352;2023-08-01T10:21:51;98996.97;;;18.55;95.41
21129;BME280;10722;51.910;8.352;2023-08-01T10:24:40;99017.34;;;18.69;96.24
21129;BME280;10722;51.910;8.352;2023-08-01T10:27:26;98998.91;;;18.92;94.72
21129;BME280;10722;51.910;8.352;2023-08-01T10:30:11;98992.00;;;18.69;93.25
21129;BME280;10722;51.910;8.352;2023-08-01T10:32:58;98981.66;;;18.66;92.70
21129;BME280;10722;51.910;8.352;2023-08-01T10:35:43;98992.28;;;19.23;92.23
21129;BME280;10722;51.910;8.352;2023-08-01T10:38:29;98989.28;;;19.12;91.07
21129;BME280;10722;51.910;8.352;2023-08-01T10:44:10;98969.47;;;19.44;89.33
21129;BME280;10722;51.910;8.352;2023-08-01T10:47:01;98964.13;;;19.45;88.64
21129;BME280;10722;51.910;8.352;2023-08-01T10:49:46;98956.88;;;19.71;87.88
21129;BME280;10722;51.910;8.352;2023-08-01T10:52:31;98975.16;;;19.35;88.31
21129;BME280;10722;51.910;8.352;2023-08-01T10:55:17;98969.25;;;19.67;87.34
21129;BME280;10722;51.910;8.352;2023-08-01T10:58:02;98977.06;;;19.69;87.84
21129;BME280;10722;51.910;8.352;2023-08-01T11:00:57;98948.19;;;18.93;86.77
21129;BME280;10722;51.910;8.352;2023-08-01T11:03:42;98981.53;;;18.69;86.92
21129;BME280;10722;51.910;8.352;2023-08-01T11:06:28;99010.09;;;18.12;87.90
21129;BME280;10722;51.910;8.352;2023-08-01T11:09:22;99115.44;;;16.72;94.04
21129;BME280;10722;51.910;8.352;2023-08-01T11:12:09;99206.53;;;15.95;100.00
21129;BME280;10722;51.910;8.352;2023-08-01T11:14:59;99223.97;;;15.93;100.00
21129;BME280;10722;51.910;8.352;2023-08-01T11:17:49;99212.78;;;15.89;100.00
21129;BME280;10722;51.910;8.352;2023-08-01T11:20:38;99215.84;;;15.73;100.00
21129;BME280;10722;51.910;8.352;2023-08-01T11:23:29;99208.38;;;15.59;100.00
21129;BME280;10722;51.910;8.352;2023-08-01T11:26:15;99215.31;;;15.60;100.00
21129;BME280;10722;51.910;8.352;2023-08-01T11:29:01;99218.38;;;15.76;100.00
21129;BME280;10722;51.910;8.352;2023-08-01T11:31:57;99209.78;;;15.72;100.00
21129;BME280;10722;51.910;8.352;2023-08-01T11:34:43;99212.78;;;15.89;100.00
21129;BME280;10722;51.910;8.352;2023-08-01T11:37:29;99209.03;;;15.98;100.00
21129;BME280;10722;51.910;8.352;2023-08-01T11:40:17;99217.00;;;15.94;100.00
21129;BME280;10722;51.910;8.352;2023-08-01T11:43:03;99211.94;;;16.75;100.00
21129;BME280;10722;51.910;8.352;2023-08-01T11:45:50;99211.69;;;17.11;100.00
21129;BME280;10722;51.910;8.352;2023-08-01T11:48:36;99200.81;;;17.73;100.00
21129;BME280;10722;51.910;8.352;2023-08-01T11:51:22;99193.59;;;18.05;100.00
21129;BME280;10722;51.910;8.352;2023-08-01T11:54:10;99181.69;;;18.64;100.00
21129;BME280;10722;51.910;8.352;2023-08-01T11:57:00;99152.59;;;18.93;100.00
21129;BME280;10722;51.910;8.352;2023-08-01T11:59:50;99125.06;;;18.61;100.00
21129;BME280;10722;51.910;8.352;2023-08-01T12:02:36;99131.59;;;19.34;100.00
21129;BME280;10722;51.910;8.352;2023-08-01T12:05:23;99115.34;;;19.46;100.00
21129;BME280;10722;51.910;8.352;2023-08-01T12:08:12;99085.88;;;19.00;100.00
21129;BME280;10722;51.910;8.352;2023-08-01T12:10:58;99077.31;;;18.76;100.00
21129;BME280;10722;51.910;8.352;2023-08-01T12:13:43;99088.25;;;18.86;100.00
21129;BME280;10722;51.910;8.352;2023-08-01T12:16:28;99077.31;;;18.76;99.83
21129;BME280;10722;51.910;8.352;2023-08-01T12:19:18;99062.03;;;18.86;97.88
21129;BME280;10722;51.910;8.352;2023-08-01T12:22:03;99057.22;;;18.77;96.07
21129;BME280;10722;51.910;8.352;2023-08-01T12:24:48;99067.63;;;18.78;95.91
21129;BME280;10722;51.910;8.352;2023-08-01T12:27:33;99037.97;;;19.17;93.26
21129;BME280;10722;51.910;8.352;2023-08-01T12:30:18;99037.66;;;19.44;91.51
21129;BME280;10722;51.910;8.352;2023-08-01T12:33:04;99054.91;;;19.10;92.25
21129;BME280;10722;51.910;8.352;2023-08-01T12:35:49;99054.41;;;18.81;91.64
21129;BME280;10722;51.910;8.352;2023-08-01T12:38:34;99063.81;;;18.86;91.38
21129;BME280;10722;51.910;8.352;2023-08-01T12:41:19;99069.59;;;18.94;91.00
21129;BME280;10722;51.910;8.352;2023-08-01T12:44:04;99045.63;;;19.22;88.83
21129;BME280;10722;51.910;8.352;2023-08-01T12:46:50;99029.16;;;18.99;86.67
21129;BME280;10722;51.910;8.352;2023-08-01T12:49:35;99019.38;;;19.03;84.67
21129;BME280;10722;51.910;8.352;2023-08-01T12:52:26;99028.84;;;19.07;84.65
21129;BME280;10722;51.910;8.352;2023-08-01T12:55:12;99013.84;;;18.70;83.38
21129;BME280;10722;51.910;8.352;2023-08-01T12:57:57;99027.13;;;18.65;83.47
21129;BME280;10722;51.910;8.352;2023-08-01T13:00:43;99053.34;;;18.64;84.47
21129;BME280;10722;51.910;8.352;2023-08-01T13:03:29;99057.22;;;18.77;84.56
21129;BME280;10722;51.910;8.352;2023-08-01T13:06:16;99114.75;;;19.40;86.79
21129;BME280;10722;51.910;8.352;2023-08-01T13:09:01;99082.28;;;19.42;85.45
21129;BME280;10722;51.910;8.352;2023-08-01T13:11:46;99079.59;;;19.25;84.93
21129;BME280;10722;51.910;8.352;2023-08-01T13:14:32;99115.44;;;18.84;86.92
21129;BME280;10722;51.910;8.352;2023-08-01T13:17:17;99151.75;;;18.71;89.47
21129;BME280;10722;51.910;8.352;2023-08-01T13:20:02;99161.72;;;18.61;89.91
21129;BME280;10722;51.910;8.352;2023-08-01T13:22:51;99175.16;;;18.53;90.87
21129;BME280;10722;51.910;8.352;2023-08-01T13:25:36;99190.69;;;18.80;92.28
21129;BME280;10722;51.910;8.352;2023-08-01T13:28:21;99213.59;;;18.53;95.46
21129;BME280;10722;51.910;8.352;2023-08-01T13:31:06;99218.53;;;19.04;97.18
21129;BME280;10722;51.910;8.352;2023-08-01T13:33:51;99197.25;;;19.33;96.45
21129;BME280;10722;51.910;8.352;2023-08-01T13:36:36;99179.06;;;19.28;94.22
21129;BME280;10722;51.910;8.352;2023-08-01T13:39:22;99150.88;;;19.74;94.44
21129;BME280;10722;51.910;8.352;2023-08-01T13:42:07;99131.16;;;20.03;92.40
21129;BME280;10722;51.910;8.352;2023-08-01T13:44:56;99077.91;;;19.82;88.05
21129;BME280;10722;51.910;8.352;2023-08-01T13:47:41;99049.56;;;19.51;85.55
21129;BME280;10722;51.910;8.352;2023-08-01T13:50:28;99083.78;;;19.09;86.81
21129;BME280;10722;51.910;8.352;2023-08-01T13:53:14;99145.25;;;18.81;90.34
21129;BME280;10722;51.910;8.352;2023-08-01T13:55:59;99200.25;;;17.90;95.03
21129;BME280;10722;51.910;8.352;2023-08-01T13:58:44;99237.09;;;18.07;100.00
21129;BME280;10722;51.910;8.352;2023-08-01T14:01:30;99243.56;;;18.44;100.00
21129;BME280;10722;51.910;8.352;2023-08-01T14:04:15;99230.72;;;18.84;100.00
21129;BME280;10722;51.910;8.352;2023-08-01T14:07:00;99222.72;;;19.09;100.00
21129;BME280;10722;51.910;8.352;2023-08-01T14:09:45;99202.47;;;19.12;100.00
21129;BME280;10722;51.910;8.352;2023-08-01T14:12:30;99183.59;;;19.04;97.83
21129;BME280;10722;51.910;8.352;2023-08-01T14:15:15;99149.25;;;19.10;94.02
21129;BME280;10722;51.910;8.352;2023-08-01T14:18:00;99164.72;;;19.57;95.21
21129;BME280;10722;51.910;8.352;2023-08-01T14:20:46;99165.50;;;19.80;93.21
21129;BME280;10722;51.910;8.352;2023-08-01T14:23:31;99148.00;;;19.99;91.92
21129;BME280;10722;51.910;8.352;2023-08-01T14:26:16;99113.97;;;19.96;88.99
21129;BME280;10722;51.910;8.352;2023-08-01T14:29:01;99091.84;;;20.02;87.04
21129;BME280;10722;51.910;8.352;2023-08-01T14:31:46;99077.13;;;19.99;85.27
21129;BME280;10722;51.910;8.352;2023-08-01T14:34:31;99055.53;;;19.92;83.93